Time;durP1;ratioP1;P1;durP2;ratioP2;P2;SDS_P1;SDS_P2;PMS_P1;PMS_P2;Temp;Humidity;BMP_temperature;BMP_pressure;BME280_temperature;BME280_humidity;BME280_pressure;Samples;Min_cycle;Max_cycle;Signal;HPM_P1;HPM_P2
2023/07/26 00:00:59;;;;;;;5.68;2.53;;;10.50;99.90;;;;;;4989347;28;20022;-84
2023/07/26 00:03:25;;;;;;;3.95;2.10;;;10.50;99.90;;;;;;4988854;28;20589;-81
2023/07/26 00:05:50;;;;;;;4.50;2.20;;;10.50;99.90;;;;;;4988875;28;20089;-85
2023/07/26 00:08:16;;;;;;;3.42;2.13;;;10.40;99.90;;;;;;4971462;28;20395;-83
2023/07/26 00:10:46;;;;;;;3.50;2.28;;;10.40;99.90;;;;;;4971170;28;20027;-83
2023/07/26 00:13:15;;;;;;;4.57;2.63;;;10.40;99.90;;;;;;4989202;28;20030;-82
2023/07/26 00:15:40;;;;;;;5.35;2.30;;;10.30;99.90;;;;;;4989055;28;20053;-82
2023/07/26 00:18:07;;;;;;;4.97;2.85;;;10.30;99.90;;;;;;4984420;28;20487;-82
2023/07/26 00:20:33;;;;;;;3.50;2.33;;;10.30;99.90;;;;;;4988498;28;20045;-82
2023/07/26 00:22:58;;;;;;;3.45;2.10;;;10.30;99.90;;;;;;4988998;28;20026;-81
2023/07/26 00:25:24;;;;;;;3.60;1.80;;;10.20;99.90;;;;;;4988879;28;20390;-83
2023/07/26 00:27:49;;;;;;;3.42;2.30;;;10.20;99.90;;;;;;4971664;28;20066;-84
2023/07/26 00:30:15;;;;;;;4.28;2.20;;;10.10;99.90;;;;;;4980499;28;20059;-84
2023/07/26 00:32:41;;;;;;;4.15;2.33;;;10.10;99.90;;;;;;4987391;28;20038;-85
2023/07/26 00:35:06;;;;;;;3.28;2.50;;;10.00;99.90;;;;;;4969896;28;20018;-84
2023/07/26 00:37:32;;;;;;;4.25;2.35;;;9.90;99.90;;;;;;4989112;28;21134;-83
2023/07/26 00:39:58;;;;;;;5.00;2.20;;;9.90;99.90;;;;;;4998002;28;20754;-83
2023/07/26 00:42:24;;;;;;;2.78;2.30;;;9.90;99.90;;;;;;4988346;28;20037;-84
2023/07/26 00:44:49;;;;;;;3.63;2.40;;;9.80;99.90;;;;;;4971053;28;20022;-84
2023/07/26 00:47:16;;;;;;;3.60;2.78;;;9.80;99.90;;;;;;5008126;23;20049;-83
2023/07/26 00:49:42;;;;;;;4.55;2.17;;;9.70;99.90;;;;;;5046686;28;20108;-82
2023/07/26 00:52:11;;;;;;;4.72;2.45;;;9.80;99.90;;;;;;5045835;28;20028;-83
2023/07/26 00:54:37;;;;;;;2.83;2.20;;;9.70;99.90;;;;;;5045536;28;21468;-83
2023/07/26 00:57:02;;;;;;;4.38;2.45;;;9.70;99.90;;;;;;5045826;28;20029;-83
2023/07/26 00:59:28;;;;;;;7.63;2.28;;;9.60;99.90;;;;;;5010114;28;20109;-83
2023/07/26 01:01:54;;;;;;;4.18;2.13;;;9.60;99.90;;;;;;5027284;28;20492;-82
2023/07/26 01:04:19;;;;;;;3.58;2.20;;;9.60;99.90;;;;;;5027845;28;20060;-82
2023/07/26 01:07:01;;;;;;;3.35;2.33;;;9.60;99.90;;;;;;5027487;28;20051;-82
2023/07/26 01:10:00;;;;;;;5.40;2.28;;;9.60;99.90;;;;;;5027710;28;20053;-82
2023/07/26 01:12:33;;;;;;;2.95;2.17;;;9.60;99.90;;;;;;5027631;28;20132;-83
2023/07/26 01:15:05;;;;;;;3.05;2.13;;;9.50;99.90;;;;;;5027663;28;20022;-82
2023/07/26 01:17:31;;;;;;;4.50;2.38;;;9.50;99.90;;;;;;5031571;28;20021;-82
2023/07/26 01:19:57;;;;;;;4.10;2.25;;;9.50;99.90;;;;;;5027681;28;20032;-83
2023/07/26 01:22:22;;;;;;;3.63;2.60;;;9.50;99.90;;;;;;5027217;28;20032;-82
2023/07/26 01:24:48;;;;;;;2.42;1.85;;;9.50;99.90;;;;;;5027601;28;20128;-83
2023/07/26 01:27:13;;;;;;;2.80;2.33;;;9.50;99.90;;;;;;5026856;28;20458;-82
2023/07/26 01:29:39;;;;;;;9.13;3.03;;;9.50;99.90;;;;;;5026775;28;20021;-83
2023/07/26 01:32:07;;;;;;;5.68;2.35;;;9.50;99.90;;;;;;5027166;28;20029;-83
2023/07/26 01:34:34;;;;;;;4.43;2.38;;;9.50;99.90;;;;;;5038946;28;20052;-83
2023/07/26 01:37:00;;;;;;;3.97;2.47;;;9.50;99.90;;;;;;5030781;28;20108;-83
2023/07/26 01:39:28;;;;;;;2.88;2.42;;;9.50;99.90;;;;;;5009270;28;20079;-82
2023/07/26 01:41:54;;;;;;;4.97;2.35;;;9.50;99.90;;;;;;5027623;28;20021;-83
2023/07/26 01:44:20;;;;;;;5.70;2.50;;;9.60;99.90;;;;;;5009684;28;20026;-83
2023/07/26 01:46:46;;;;;;;3.25;2.17;;;9.60;99.90;;;;;;5053634;22;20410;-83
2023/07/26 01:49:12;;;;;;;2.92;2.53;;;9.60;99.90;;;;;;4989690;28;20042;-82
2023/07/26 01:51:38;;;;;;;6.07;2.40;;;9.70;99.90;;;;;;5007507;28;20029;-82
2023/07/26 01:54:04;;;;;;;3.78;2.47;;;9.70;99.90;;;;;;4989704;28;20395;-84
2023/07/26 01:56:29;;;;;;;3.45;2.15;;;9.70;99.90;;;;;;5017130;28;20049;-83
2023/07/26 01:58:55;;;;;;;5.75;2.13;;;9.70;99.90;;;;;;4993458;28;20205;-84
2023/07/26 02:01:21;;;;;;;3.65;2.35;;;9.70;99.90;;;;;;5007063;28;20014;-82
2023/07/26 02:03:46;;;;;;;5.47;2.22;;;9.70;99.90;;;;;;4989429;28;20060;-82
2023/07/26 02:06:12;;;;;;;3.20;2.22;;;9.70;99.90;;;;;;5007022;28;20069;-84
2023/07/26 02:08:38;;;;;;;2.80;2.35;;;9.70;99.90;;;;;;4991060;28;20018;-84
2023/07/26 02:11:04;;;;;;;7.22;2.40;;;9.70;99.90;;;;;;5011031;28;20432;-84
2023/07/26 02:13:29;;;;;;;4.72;2.30;;;9.70;99.90;;;;;;4993412;28;20028;-84
2023/07/26 02:15:55;;;;;;;4.40;2.92;;;9.70;99.90;;;;;;5011252;28;20091;-84
2023/07/26 02:18:22;;;;;;;4.93;2.65;;;9.70;99.90;;;;;;5010822;28;20068;-84
2023/07/26 02:20:47;;;;;;;3.05;2.03;;;9.70;99.90;;;;;;5010835;28;20040;-85
2023/07/26 02:23:13;;;;;;;2.97;2.22;;;9.60;99.90;;;;;;5010503;28;20022;-83
2023/07/26 02:25:39;;;;;;;5.90;2.10;;;9.70;99.90;;;;;;4999326;28;20034;-83
2023/07/26 02:28:04;;;;;;;4.53;2.33;;;9.60;99.90;;;;;;5017075;28;20092;-83
2023/07/26 02:30:30;;;;;;;3.08;2.40;;;9.50;99.90;;;;;;5010586;28;20037;-84
2023/07/26 02:32:55;;;;;;;3.70;2.40;;;9.50;99.90;;;;;;5010172;28;20028;-83
2023/07/26 02:35:21;;;;;;;2.80;2.38;;;9.50;99.90;;;;;;4992463;28;20022;-82
2023/07/26 02:37:47;;;;;;;4.30;2.47;;;9.40;99.90;;;;;;4992254;28;20410;-85
2023/07/26 02:40:12;;;;;;;3.88;2.33;;;9.40;99.90;;;;;;4992285;28;20363;-82
2023/07/26 02:42:38;;;;;;;5.03;2.40;;;9.40;99.90;;;;;;4992118;28;20120;-82
2023/07/26 02:45:04;;;;;;;5.07;2.47;;;9.30;99.90;;;;;;4991904;28;20030;-81
2023/07/26 02:47:32;;;;;;;7.53;2.78;;;9.30;99.90;;;;;;5043928;23;20806;-81
2023/07/26 02:50:01;;;;;;;2.72;2.08;;;9.30;99.90;;;;;;5049965;28;20053;-80
2023/07/26 02:52:27;;;;;;;4.13;2.28;;;9.30;99.90;;;;;;5049423;28;20112;-80
2023/07/26 02:54:53;;;;;;;3.67;2.10;;;9.20;99.90;;;;;;5049472;28;20116;-81
2023/07/26 02:57:19;;;;;;;4.78;2.05;;;9.20;99.90;;;;;;5049182;28;20065;-80
2023/07/26 02:59:44;;;;;;;3.63;2.05;;;9.20;99.90;;;;;;5048614;28;20031;-80
2023/07/26 03:02:10;;;;;;;3.65;2.20;;;9.10;99.90;;;;;;5048381;28;20021;-80
2023/07/26 03:04:35;;;;;;;3.38;1.90;;;9.10;99.90;;;;;;5047972;28;20104;-81
2023/07/26 03:07:01;;;;;;;4.80;2.30;;;9.10;99.90;;;;;;5048234;28;20044;-80
2023/07/26 03:09:26;;;;;;;3.15;2.45;;;9.00;99.90;;;;;;5048764;28;20472;-80
2023/07/26 03:11:52;;;;;;;4.43;2.53;;;8.90;99.90;;;;;;5048239;28;20493;-80
2023/07/26 03:14:18;;;;;;;3.58;2.30;;;8.90;99.90;;;;;;5048314;28;20021;-80
2023/07/26 03:16:43;;;;;;;5.45;2.67;;;8.90;99.90;;;;;;5045503;28;20025;-81
2023/07/26 03:19:09;;;;;;;2.78;2.13;;;8.90;99.90;;;;;;5043160;28;20068;-82
2023/07/26 03:21:35;;;;;;;3.08;2.30;;;8.80;99.90;;;;;;5047919;28;20560;-82
2023/07/26 03:24:01;;;;;;;3.25;2.42;;;8.70;99.90;;;;;;5034474;28;20027;-82
2023/07/26 03:26:27;;;;;;;3.28;2.05;;;8.70;99.90;;;;;;5047639;28;20358;-82
2023/07/26 03:28:52;;;;;;;6.45;2.35;;;8.70;99.90;;;;;;5047781;28;20484;-81
2023/07/26 03:31:18;;;;;;;6.05;2.60;;;8.80;99.90;;;;;;5029794;28;20580;-82
2023/07/26 03:33:43;;;;;;;3.67;2.33;;;8.70;99.90;;;;;;5047216;28;20031;-82
2023/07/26 03:36:09;;;;;;;2.95;2.05;;;8.80;99.90;;;;;;5047172;28;20036;-81
2023/07/26 03:38:35;;;;;;;4.80;2.25;;;8.70;99.90;;;;;;5047936;28;20024;-79
2023/07/26 03:41:00;;;;;;;6.18;2.70;;;8.70;99.90;;;;;;5047838;28;20498;-82
2023/07/26 03:43:26;;;;;;;3.55;2.80;;;8.70;99.90;;;;;;5047392;28;20017;-82
2023/07/26 03:45:51;;;;;;;4.40;2.35;;;8.70;99.90;;;;;;5047582;28;20523;-81
2023/07/26 03:48:17;;;;;;;7.63;2.78;;;8.70;99.90;;;;;;5066119;22;20051;-81
2023/07/26 03:50:43;;;;;;;4.28;2.50;;;8.60;99.90;;;;;;5046960;28;20385;-82
2023/07/26 03:53:08;;;;;;;3.67;1.90;;;8.60;99.90;;;;;;5047582;28;20036;-82
2023/07/26 03:55:34;;;;;;;3.28;2.40;;;8.60;99.90;;;;;;5047530;28;20021;-82
2023/07/26 03:58:00;;;;;;;7.72;2.33;;;8.60;99.90;;;;;;5029176;28;20048;-82
2023/07/26 04:00:25;;;;;;;5.72;2.50;;;8.60;99.90;;;;;;5029328;28;20024;-83
2023/07/26 04:02:51;;;;;;;3.63;2.50;;;8.60;99.90;;;;;;5028741;28;20029;-82
2023/07/26 04:05:18;;;;;;;3.63;2.55;;;8.60;99.90;;;;;;5046713;28;20105;-82
2023/07/26 04:07:44;;;;;;;3.63;2.25;;;8.60;99.90;;;;;;5047440;28;20029;-82
2023/07/26 04:10:10;;;;;;;7.38;2.88;;;8.50;99.90;;;;;;5047103;28;20025;-82
2023/07/26 04:12:35;;;;;;;11.95;3.30;;;8.50;99.90;;;;;;5047060;28;20084;-82
2023/07/26 04:15:01;;;;;;;8.40;2.63;;;8.40;99.90;;;;;;5046900;28;20024;-82
2023/07/26 04:17:27;;;;;;;9.88;2.78;;;8.40;99.90;;;;;;5043653;28;20032;-83
2023/07/26 04:19:52;;;;;;;19.40;4.65;;;8.40;99.90;;;;;;5028176;28;20025;-83
2023/07/26 04:22:18;;;;;;;20.75;3.58;;;8.40;99.90;;;;;;5046477;28;20021;-83
2023/07/26 04:24:44;;;;;;;8.07;2.40;;;8.40;99.90;;;;;;5046190;28;20027;-83
2023/07/26 04:27:10;;;;;;;4.00;2.38;;;8.40;99.90;;;;;;5028128;28;20496;-82
2023/07/26 04:29:36;;;;;;;5.97;2.35;;;8.40;99.90;;;;;;5046622;28;20047;-82
2023/07/26 04:32:02;;;;;;;4.47;2.53;;;8.40;99.90;;;;;;5045620;28;20416;-82
2023/07/26 04:34:27;;;;;;;3.75;2.15;;;8.40;99.90;;;;;;5046090;28;20012;-82
2023/07/26 04:36:53;;;;;;;8.13;2.65;;;8.40;99.90;;;;;;5046510;28;20032;-82
2023/07/26 04:39:19;;;;;;;4.40;2.60;;;8.40;99.90;;;;;;5046519;28;20093;-82
2023/07/26 04:41:44;;;;;;;3.50;2.40;;;8.40;99.90;;;;;;5046384;28;20024;-83
2023/07/26 04:44:10;;;;;;;3.28;2.45;;;8.40;99.90;;;;;;5046384;28;20775;-83
2023/07/26 04:49:07;;;;;;;7.32;2.97;;;8.40;99.90;;;;;;5045232;28;20049;-82
2023/07/26 04:51:32;;;;;;;4.63;2.55;;;8.50;99.90;;;;;;5047184;28;20500;-83
2023/07/26 04:53:59;;;;;;;5.13;2.70;;;8.50;99.90;;;;;;5047516;28;20405;-83
2023/07/26 04:56:26;;;;;;;2.65;2.20;;;8.60;99.90;;;;;;5029347;28;20024;-83
2023/07/26 04:58:52;;;;;;;3.67;2.70;;;8.60;99.90;;;;;;5045824;28;20544;-84
2023/07/26 05:01:18;;;;;;;6.70;2.60;;;8.60;99.90;;;;;;5041029;28;20017;-84
2023/07/26 05:03:44;;;;;;;4.63;2.65;;;8.60;99.90;;;;;;5031753;28;20500;-83
2023/07/26 05:06:12;;;;;;;4.65;2.63;;;8.70;99.90;;;;;;5045970;28;20032;-84
2023/07/26 05:08:38;;;;;;;6.63;2.78;;;8.80;99.90;;;;;;5032573;28;20021;-84
2023/07/26 05:11:05;;;;;;;3.67;2.20;;;8.90;99.90;;;;;;5045613;28;20137;-83
2023/07/26 05:13:30;;;;;;;6.63;2.45;;;8.90;99.90;;;;;;5045936;28;20017;-82
2023/07/26 05:15:56;;;;;;;5.22;2.47;;;9.00;99.90;;;;;;5046474;28;20381;-82
2023/07/26 05:18:21;;;;;;;4.80;2.75;;;9.00;99.90;;;;;;5042850;28;20048;-82
2023/07/26 05:20:50;;;;;;;3.70;2.58;;;9.00;99.90;;;;;;5027291;28;20027;-82
2023/07/26 05:23:17;;;;;;;2.80;2.08;;;9.10;99.90;;;;;;5045848;28;20048;-82
2023/07/26 05:25:43;;;;;;;3.38;2.50;;;9.10;99.90;;;;;;5045572;28;20120;-81
2023/07/26 05:28:09;;;;;;;7.72;3.10;;;9.10;99.90;;;;;;5045577;28;20112;-82
2023/07/26 05:30:38;;;;;;;4.57;2.70;;;9.20;99.90;;;;;;5045573;28;20139;-82
2023/07/26 05:33:04;;;;;;;4.72;2.65;;;9.20;99.90;;;;;;5045648;28;20024;-83
2023/07/26 05:35:30;;;;;;;5.32;2.53;;;9.20;99.90;;;;;;5045865;28;20009;-83
2023/07/26 05:37:56;;;;;;;3.88;2.33;;;9.30;99.90;;;;;;5045824;28;20029;-82
2023/07/26 05:40:21;;;;;;;7.75;2.72;;;9.20;99.90;;;;;;5027575;28;20032;-83
2023/07/26 05:42:47;;;;;;;9.77;2.58;;;9.20;99.90;;;;;;5049206;28;20040;-87
2023/07/26 05:45:13;;;;;;;4.25;2.78;;;9.30;99.90;;;;;;5052693;28;20359;-86
2023/07/26 05:47:38;;;;;;;6.63;2.58;;;9.30;99.90;;;;;;5079855;22;20117;-90
2023/07/26 05:50:10;;;;;;;8.05;2.95;;;9.30;99.90;;;;;;5047089;28;20851;-89
2023/07/26 05:52:36;;;;;;;5.85;2.88;;;9.40;99.90;;;;;;5037867;28;20025;-89
2023/07/26 05:55:02;;;;;;;5.47;2.40;;;9.40;99.90;;;;;;5049760;28;20097;-88
2023/07/26 05:57:28;;;;;;;6.30;3.10;;;9.50;99.90;;;;;;5056856;28;20025;-88
2023/07/26 05:59:54;;;;;;;6.00;3.40;;;9.50;99.90;;;;;;5055237;28;20493;-89
2023/07/26 06:02:19;;;;;;;5.22;2.58;;;9.60;99.90;;;;;;5055587;28;20028;-87
2023/07/26 06:04:46;;;;;;;4.43;3.00;;;9.70;99.90;;;;;;5036669;28;20411;-87
2023/07/26 06:07:12;;;;;;;5.90;2.80;;;9.80;99.90;;;;;;5036442;28;20798;-88
2023/07/26 06:09:37;;;;;;;8.07;2.50;;;9.90;99.90;;;;;;5037114;28;20025;-88
2023/07/26 06:12:04;;;;;;;4.75;2.22;;;10.00;99.90;;;;;;5052285;28;20036;-86
2023/07/26 06:14:30;;;;;;;4.78;2.65;;;10.10;99.90;;;;;;5032469;28;20056;-85
2023/07/26 06:16:55;;;;;;;4.15;2.58;;;10.30;99.90;;;;;;5049434;28;20535;-86
2023/07/26 06:19:22;;;;;;;3.53;2.40;;;10.50;99.90;;;;;;5040829;28;20044;-84
2023/07/26 06:21:48;;;;;;;4.22;2.50;;;10.80;99.90;;;;;;5022637;28;20040;-85
2023/07/26 06:24:14;;;;;;;3.53;2.42;;;11.10;99.90;;;;;;5032096;28;20029;-84
2023/07/26 06:26:39;;;;;;;3.55;2.28;;;11.40;99.90;;;;;;5031450;28;20040;-84
2023/07/26 06:29:05;;;;;;;5.22;2.65;;;11.70;99.90;;;;;;5049747;28;20729;-85
2023/07/26 06:31:30;;;;;;;7.78;2.42;;;11.90;99.90;;;;;;5031983;28;20029;-85
2023/07/26 06:33:56;;;;;;;3.15;2.55;;;12.10;99.90;;;;;;5049331;28;20488;-84
2023/07/26 06:36:22;;;;;;;4.40;2.38;;;12.20;99.90;;;;;;5030203;28;20028;-86
2023/07/26 06:38:47;;;;;;;7.38;2.58;;;12.40;99.90;;;;;;5031939;28;20496;-85
2023/07/26 06:41:13;;;;;;;4.15;2.70;;;12.50;99.90;;;;;;5048294;28;20036;-85
2023/07/26 06:43:39;;;;;;;3.90;2.33;;;12.60;99.90;;;;;;5025211;28;20034;-85
2023/07/26 06:46:04;;;;;;;6.60;2.58;;;12.70;99.90;;;;;;5028253;28;20049;-86
2023/07/26 06:48:30;;;;;;;6.63;2.92;;;12.70;99.90;;;;;;5034787;22;20057;-82
2023/07/26 06:50:55;;;;;;;4.43;2.70;;;12.80;99.90;;;;;;5014913;28;20034;-83
2023/07/26 06:53:21;;;;;;;5.75;3.00;;;12.90;99.90;;;;;;5021190;28;20044;-83
2023/07/26 06:55:47;;;;;;;6.50;3.22;;;13.00;99.90;;;;;;5009974;28;20382;-83
2023/07/26 06:58:12;;;;;;;3.05;2.38;;;13.10;99.90;;;;;;4997019;28;20398;-81
2023/07/26 07:00:38;;;;;;;4.85;2.72;;;13.20;99.90;;;;;;5018696;28;20036;-84
2023/07/26 07:03:04;;;;;;;3.50;2.85;;;13.40;99.90;;;;;;5024541;28;20091;-83
2023/07/26 07:05:33;;;;;;;7.78;2.92;;;13.50;99.90;;;;;;5000542;28;20022;-83
2023/07/26 07:07:59;;;;;;;5.88;2.95;;;13.60;99.90;;;;;;5002719;28;20096;-84
2023/07/26 07:10:24;;;;;;;4.60;2.92;;;13.70;99.90;;;;;;5018773;28;20474;-82
2023/07/26 07:12:50;;;;;;;4.88;2.92;;;13.80;99.90;;;;;;5016918;28;20053;-84
2023/07/26 07:15:16;;;;;;;5.32;2.90;;;13.80;99.90;;;;;;5010416;28;20052;-82
2023/07/26 07:17:42;;;;;;;6.07;3.25;;;13.90;99.90;;;;;;5011163;28;20467;-83
2023/07/26 07:20:08;;;;;;;3.00;2.47;;;14.00;99.90;;;;;;5013313;28;20057;-83
2023/07/26 07:22:35;;;;;;;4.43;2.88;;;14.10;99.90;;;;;;5014166;28;20144;-83
2023/07/26 07:25:01;;;;;;;6.32;2.83;;;14.30;99.90;;;;;;5014787;28;20547;-83
2023/07/26 07:27:26;;;;;;;8.13;2.65;;;14.40;99.40;;;;;;5017708;28;20037;-84
2023/07/26 07:29:52;;;;;;;3.17;2.35;;;14.50;99.70;;;;;;5001144;28;20033;-83
2023/07/26 07:32:18;;;;;;;4.82;2.13;;;14.70;99.70;;;;;;5017769;28;20025;-83
2023/07/26 07:34:44;;;;;;;3.70;2.55;;;14.90;97.80;;;;;;5012874;28;20022;-83
2023/07/26 07:37:10;;;;;;;4.97;2.55;;;15.00;97.60;;;;;;5009315;28;20037;-83
2023/07/26 07:39:36;;;;;;;5.80;2.42;;;15.10;97.90;;;;;;4991325;28;20030;-83
2023/07/26 07:42:02;;;;;;;6.90;2.50;;;15.20;97.90;;;;;;5011677;28;20018;-83
2023/07/26 07:44:28;;;;;;;3.60;2.03;;;15.30;97.70;;;;;;5013255;28;20386;-84
2023/07/26 07:46:54;;;;;;;3.55;2.20;;;15.30;97.30;;;;;;5034809;23;20506;-84
2023/07/26 07:49:20;;;;;;;7.22;3.00;;;15.50;97.20;;;;;;4992639;28;20045;-84
2023/07/26 07:51:45;;;;;;;3.78;2.38;;;15.60;98.60;;;;;;5018393;28;20022;-88
2023/07/26 07:54:11;;;;;;;5.93;2.40;;;15.70;97.10;;;;;;5026711;28;20135;-89
2023/07/26 07:56:38;;;;;;;3.13;2.17;;;15.80;94.80;;;;;;4998991;28;20113;-89
2023/07/26 07:59:04;;;;;;;3.58;2.33;;;16.00;94.90;;;;;;5002302;28;20048;-90
2023/07/26 08:01:30;;;;;;;4.13;2.00;;;16.10;94.70;;;;;;5001897;28;20441;-90
2023/07/26 08:03:59;;;;;;;5.50;2.20;;;16.30;94.30;;;;;;5003876;28;20023;-89
2023/07/26 08:06:28;;;;;;;3.63;2.60;;;16.40;94.30;;;;;;4973084;28;20450;-88
2023/07/26 08:08:54;;;;;;;5.55;2.17;;;16.40;94.50;;;;;;5008419;28;20030;-88
2023/07/26 08:11:19;;;;;;;4.45;2.05;;;16.40;94.30;;;;;;4999422;28;20028;-89
2023/07/26 08:13:45;;;;;;;5.82;2.42;;;16.60;93.50;;;;;;5010550;28;20034;-89
2023/07/26 08:16:11;;;;;;;2.33;2.03;;;16.70;93.90;;;;;;5001855;28;20021;-89
2023/07/26 08:18:37;;;;;;;5.00;1.90;;;16.90;94.20;;;;;;5000560;28;20072;-90
2023/07/26 08:21:03;;;;;;;2.80;2.00;;;17.20;91.40;;;;;;5006221;28;20471;-88
2023/07/26 08:23:32;;;;;;;3.17;1.80;;;17.40;93.10;;;;;;5005212;28;20073;-85
2023/07/26 08:26:04;;;;;;;4.85;2.17;;;17.70;92.90;;;;;;4976391;28;20031;-86
2023/07/26 08:28:30;;;;;;;2.75;1.98;;;17.90;91.30;;;;;;5004167;28;20101;-86
2023/07/26 08:30:57;;;;;;;8.75;2.95;;;18.10;92.60;;;;;;4996719;28;20555;-87
2023/07/26 08:33:22;;;;;;;6.40;2.50;;;18.20;88.30;;;;;;5003893;28;20087;-85
2023/07/26 08:35:48;;;;;;;5.90;2.28;;;18.30;90.60;;;;;;4991291;28;20375;-82
2023/07/26 08:38:13;;;;;;;4.50;1.98;;;18.20;88.40;;;;;;4973482;28;20033;-84
2023/07/26 08:40:47;;;;;;;3.65;2.25;;;18.30;90.80;;;;;;4973675;28;20105;-84
2023/07/26 08:43:14;;;;;;;6.38;2.50;;;18.40;91.10;;;;;;4967510;28;20032;-84
2023/07/26 08:45:42;;;;;;;5.45;2.60;;;18.80;88.90;;;;;;4991465;28;20376;-82
2023/07/26 08:48:08;;;;;;;6.60;2.28;;;19.60;85.70;;;;;;5040174;22;20052;-86
2023/07/26 08:50:35;;;;;;;6.65;2.40;;;20.30;79.70;;;;;;5013674;28;20029;-88
2023/07/26 08:53:04;;;;;;;5.03;1.67;;;20.80;77.90;;;;;;5038294;28;20513;-85
2023/07/26 08:55:29;;;;;;;6.00;2.03;;;21.60;75.10;;;;;;5031773;28;20382;-89
2023/07/26 08:57:56;;;;;;;4.70;1.80;;;22.40;71.20;;;;;;5031449;28;20026;-86
2023/07/26 09:00:21;;;;;;;3.97;1.85;;;22.20;68.30;;;;;;5030568;28;20017;-86
2023/07/26 09:02:48;;;;;;;6.45;2.20;;;22.10;67.40;;;;;;5028460;28;20052;-86
2023/07/26 09:05:14;;;;;;;4.10;2.22;;;22.60;68.70;;;;;;5030764;28;20029;-86
2023/07/26 09:07:40;;;;;;;2.58;1.80;;;23.30;63.40;;;;;;5030481;28;20029;-86
2023/07/26 09:10:05;;;;;;;3.88;2.13;;;23.70;60.60;;;;;;5029244;28;20033;-85
2023/07/26 09:12:31;;;;;;;2.15;1.60;;;24.40;59.90;;;;;;5030633;28;20032;-84
2023/07/26 09:14:58;;;;;;;1.90;1.33;;;24.90;56.40;;;;;;5029840;28;20017;-87
2023/07/26 09:17:38;;;;;;;4.20;1.40;;;25.10;54.70;;;;;;5029655;28;20504;-87
2023/07/26 09:20:06;;;;;;;4.82;1.58;;;25.70;52.90;;;;;;5029335;28;20056;-89
2023/07/26 09:22:31;;;;;;;2.15;1.30;;;26.00;52.00;;;;;;5029405;28;20028;-84
2023/07/26 09:24:57;;;;;;;4.72;1.58;;;26.40;51.80;;;;;;5030930;28;20026;-84
2023/07/26 09:27:26;;;;;;;3.78;1.50;;;26.60;49.60;;;;;;5030721;28;20099;-86
2023/07/26 09:29:56;;;;;;;2.50;1.80;;;26.70;49.80;;;;;;5030656;28;20021;-87
2023/07/26 09:32:29;;;;;;;3.15;1.92;;;26.70;47.60;;;;;;5024582;28;20040;-86
2023/07/26 09:34:59;;;;;;;3.22;1.80;;;26.80;46.40;;;;;;5030968;28;20028;-89
2023/07/26 09:37:25;;;;;;;2.20;1.55;;;27.20;46.30;;;;;;5030533;28;20017;-87
2023/07/26 09:39:51;;;;;;;4.07;1.98;;;27.60;43.60;;;;;;5025066;28;20053;-88
2023/07/26 09:42:17;;;;;;;4.47;1.80;;;27.70;46.20;;;;;;5023587;28;20450;-87
2023/07/26 09:44:45;;;;;;;3.10;1.75;;;27.80;45.10;;;;;;5029289;28;20116;-86
2023/07/26 09:47:11;;;;;;;3.45;1.85;;;27.70;45.60;;;;;;5053980;22;20044;-82
2023/07/26 09:49:50;;;;;;;3.42;1.70;;;28.30;45.60;;;;;;5031920;28;20029;-82
2023/07/26 09:52:20;;;;;;;4.65;1.85;;;28.80;46.00;;;;;;5041110;28;20527;-82
2023/07/26 09:54:46;;;;;;;4.22;1.75;;;29.10;44.50;;;;;;5046167;28;20047;-82
2023/07/26 09:57:14;;;;;;;2.50;1.50;;;29.40;41.50;;;;;;5049664;28;20056;-84
2023/07/26 09:59:41;;;;;;;2.97;1.70;;;29.40;41.50;;;;;;5049676;28;20025;-83
2023/07/26 10:02:11;;;;;;;2.65;1.77;;;30.00;43.50;;;;;;5027121;28;20037;-84
2023/07/26 10:04:50;;;;;;;2.08;1.67;;;30.10;42.20;;;;;;5036884;28;20037;-82
2023/07/26 10:07:17;;;;;;;3.35;1.70;;;30.60;41.20;;;;;;5042168;28;20029;-82
2023/07/26 10:09:44;;;;;;;4.15;1.80;;;30.80;40.80;;;;;;5048810;28;20017;-84
2023/07/26 10:12:11;;;;;;;1.73;1.45;;;31.00;37.20;;;;;;5048572;28;20025;-83
2023/07/26 10:14:38;;;;;;;3.85;1.70;;;30.90;36.80;;;;;;5048238;28;20021;-82
2023/07/26 10:17:04;;;;;;;3.72;1.73;;;31.70;38.40;;;;;;5030415;28;20021;-82
2023/07/26 10:19:30;;;;;;;2.55;1.40;;;32.00;35.70;;;;;;5035277;28;20021;-84
2023/07/26 10:21:59;;;;;;;2.58;1.45;;;31.70;35.70;;;;;;5049664;28;20025;-83
2023/07/26 10:24:26;;;;;;;3.03;1.70;;;31.60;38.10;;;;;;5049758;28;20151;-84
2023/07/26 10:26:55;;;;;;;3.45;1.60;;;31.50;36.90;;;;;;5049962;28;20090;-84
2023/07/26 10:29:21;;;;;;;3.83;1.65;;;31.00;38.40;;;;;;5051170;28;20103;-83
2023/07/26 10:31:58;;;;;;;2.88;2.03;;;30.60;37.00;;;;;;5053260;28;20175;-84
2023/07/26 10:34:25;;;;;;;3.53;1.70;;;30.60;39.50;;;;;;5034289;28;20028;-84
2023/07/26 10:36:52;;;;;;;2.83;1.63;;;30.80;39.10;;;;;;5052840;28;20044;-83
2023/07/26 10:39:33;;;;;;;3.03;1.58;;;30.10;37.20;;;;;;5034957;28;20021;-83
2023/07/26 10:41:59;;;;;;;;;;;29.50;39.30;;;;;;5035269;28;20047;-83
2023/07/26 10:44:25;;;;;;;2.65;1.45;;;29.10;39.70;;;;;;5034901;28;20357;-83
2023/07/26 10:49:30;;;;;;;2.33;1.45;;;30.00;41.20;;;;;;5023108;28;20065;-83
2023/07/26 10:52:02;;;;;;;2.40;1.50;;;30.50;39.40;;;;;;5016510;28;20025;-88
2023/07/26 10:54:42;;;;;;;2.03;1.52;;;30.80;37.70;;;;;;5014956;28;20029;-87
2023/07/26 10:57:17;;;;;;;1.77;1.30;;;30.50;38.80;;;;;;5017920;28;20026;-85
2023/07/26 11:00:04;;;;;;;2.05;1.27;;;29.80;37.80;;;;;;4996503;28;20034;-84
2023/07/26 11:02:50;;;;;;;1.45;1.30;;;30.00;38.30;;;;;;5003883;28;20506;-85
2023/07/26 11:05:21;;;;;;;2.05;1.40;;;30.30;38.80;;;;;;5008911;28;20018;-87
2023/07/26 11:07:52;;;;;;;1.50;1.23;;;31.10;39.00;;;;;;4996165;28;20030;-87
2023/07/26 11:10:24;;;;;;;1.98;1.42;;;31.50;38.10;;;;;;5012882;28;20471;-85
2023/07/26 11:13:06;;;;;;;3.53;1.17;;;31.80;35.70;;;;;;4995567;28;20077;-85
2023/07/26 11:15:33;;;;;;;3.15;1.70;;;31.20;34.50;;;;;;5013226;28;20022;-86
2023/07/26 11:17:59;;;;;;;2.95;1.73;;;31.40;36.40;;;;;;4981757;28;20074;-87
2023/07/26 11:20:25;;;;;;;2.97;1.63;;;32.00;35.60;;;;;;5013143;28;20029;-85
2023/07/26 11:22:51;;;;;;;2.45;1.30;;;31.60;34.40;;;;;;5012831;28;20030;-86
2023/07/26 11:25:17;;;;;;;2.08;1.40;;;30.80;33.60;;;;;;5013257;28;20045;-84
2023/07/26 11:27:44;;;;;;;2.30;1.50;;;30.90;35.40;;;;;;5013179;28;20487;-88
2023/07/26 11:30:17;;;;;;;2.55;1.30;;;31.20;34.80;;;;;;4994980;28;20083;-85
2023/07/26 11:32:48;;;;;;;1.77;1.27;;;31.10;34.50;;;;;;4994585;28;20116;-86
2023/07/26 11:35:16;;;;;;;3.33;2.05;;;31.90;35.90;;;;;;5011374;28;20028;-84
2023/07/26 11:37:55;;;;;;;2.17;1.30;;;31.70;34.40;;;;;;5012391;28;20057;-85
2023/07/26 11:40:22;;;;;;;1.58;1.13;;;31.70;33.40;;;;;;5012313;28;20026;-87
2023/07/26 11:42:49;;;;;;;4.20;1.60;;;31.50;34.90;;;;;;5012790;28;20021;-85
2023/07/26 11:45:15;;;;;;;2.30;1.35;;;32.40;35.40;;;;;;5012441;28;20462;-85
2023/07/26 11:47:41;;;;;;;2.88;1.50;;;32.00;33.10;;;;;;5044483;22;20071;-83
2023/07/26 11:50:07;;;;;;;2.40;1.35;;;32.60;33.10;;;;;;5052975;28;20109;-84
2023/07/26 11:52:34;;;;;;;2.10;1.40;;;33.40;35.40;;;;;;5046521;28;20431;-83
2023/07/26 11:55:05;;;;;;;1.40;1.13;;;34.10;32.50;;;;;;5046188;28;20024;-83
2023/07/26 11:57:30;;;;;;;;;;;33.80;32.60;;;;;;5052981;28;20014;-85
2023/07/26 11:59:59;;;;;;;1.20;1.00;;;33.90;30.60;;;;;;5051365;28;19919;-84
2023/07/26 12:02:26;;;;;;;2.15;1.20;;;33.40;31.80;;;;;;5033646;28;20028;-82
2023/07/26 12:05:28;;;;;;;1.85;1.20;;;33.10;31.50;;;;;;5051275;28;20381;-83
2023/07/26 12:07:56;;;;;;;2.00;1.40;;;32.60;33.50;;;;;;4987425;28;20519;-83
2023/07/26 12:10:29;;;;;;;3.08;1.52;;;33.30;34.20;;;;;;5051193;28;20025;-82
2023/07/26 12:12:56;;;;;;;1.92;1.30;;;33.70;35.00;;;;;;5049900;28;20717;-84
2023/07/26 12:15:22;;;;;;;5.45;1.38;;;34.10;33.50;;;;;;5033701;28;20042;-82
2023/07/26 12:17:57;;;;;;;2.72;1.13;;;33.40;34.60;;;;;;5040790;28;20033;-82
2023/07/26 12:20:24;;;;;;;4.45;1.25;;;32.60;34.10;;;;;;5051151;28;20100;-84
2023/07/26 12:22:55;;;;;;;1.63;1.38;;;32.20;35.00;;;;;;5050817;28;20025;-83
2023/07/26 12:25:31;;;;;;;;;;;31.90;34.90;;;;;;5051427;28;20013;-83
2023/07/26 12:27:56;;;;;;;3.50;1.40;;;31.70;36.90;;;;;;5051504;28;19917;-83
2023/07/26 12:30:24;;;;;;;2.40;1.25;;;31.50;35.80;;;;;;5051040;28;20477;-81
2023/07/26 12:33:10;;;;;;;1.52;1.10;;;31.30;36.60;;;;;;5050694;28;20031;-82
2023/07/26 12:35:36;;;;;;;5.10;2.08;;;31.90;39.10;;;;;;5050899;28;20032;-82
2023/07/26 12:38:09;;;;;;;1.95;1.40;;;32.10;34.20;;;;;;5033162;28;20029;-81
2023/07/26 12:40:34;;;;;;;3.47;1.98;;;32.40;32.30;;;;;;5051548;28;20488;-82
2023/07/26 12:43:17;;;;;;;1.65;1.50;;;32.70;32.90;;;;;;5051129;28;20025;-85
2023/07/26 12:45:43;;;;;;;2.38;1.48;;;32.80;35.00;;;;;;5032967;28;20080;-82
2023/07/26 12:48:09;;;;;;;3.65;1.48;;;33.00;33.20;;;;;;5047823;23;20768;-82
2023/07/26 12:50:34;;;;;;;3.97;1.73;;;32.60;32.90;;;;;;5051312;28;20064;-82
2023/07/26 12:53:00;;;;;;;4.10;1.70;;;32.20;32.00;;;;;;5050235;28;20059;-84
2023/07/26 12:55:25;;;;;;;4.15;1.90;;;31.00;34.00;;;;;;5050638;28;20028;-84
2023/07/26 12:57:51;;;;;;;3.00;2.25;;;28.90;35.00;;;;;;5043212;28;20036;-83